Time;durP1;ratioP1;P1;durP2;ratioP2;P2;SDS_P1;SDS_P2;PMS_P1;PMS_P2;Temp;Humidity;BMP_temperature;BMP_pressure;BME280_temperature;BME280_humidity;BME280_pressure;Samples;Min_cycle;Max_cycle;Signal;HPM_P1;HPM_P2
2022/12/29 00:02:29;;;;;;;2.87;1.17;;;;;;;8.89;89.95;99782.41;6126319;28;20033;-74
2022/12/29 00:05:25;;;;;;;2.53;1.00;;;;;;;8.92;89.91;99776.81;6124201;28;20043;-77
2022/12/29 00:08:38;;;;;;;1.53;1.00;;;;;;;8.87;89.77;99779.09;6126477;28;20040;-73
2022/12/29 00:11:34;;;;;;;1.88;1.10;;;;;;;8.86;90.06;99775.63;6127514;28;20502;-77
2022/12/29 00:17:43;;;;;;;3.15;1.00;;;;;;;8.99;89.33;99776.00;6126769;28;20029;-77
2022/12/29 00:36:51;;;;;;;4.55;1.88;;;;;;;9.07;89.01;99787.63;6122668;28;20032;-77
2022/12/29 00:46:15;;;;;;;2.00;0.95;;;;;;;9.12;89.05;99790.63;6125074;28;20036;-75
2022/12/29 00:49:30;;;;;;;3.13;1.10;;;;;;;9.11;88.95;99779.22;6124995;28;20368;-78
2022/12/29 00:52:25;;;;;;;1.65;1.08;;;;;;;9.09;88.78;99767.97;6122413;28;20024;-76
2022/12/29 00:55:21;;;;;;;2.27;1.10;;;;;;;9.16;88.84;99779.56;6111929;28;20056;-76
2022/12/29 00:58:16;;;;;;;2.57;1.00;;;;;;;9.09;88.79;99760.03;6123799;28;20037;-75
2022/12/29 01:01:11;;;;;;;2.70;1.10;;;;;;;9.04;88.86;99754.41;6132727;28;20489;-77
2022/12/29 01:04:07;;;;;;;1.67;0.97;;;;;;;9.14;88.60;99773.59;6123764;28;20278;-77
2022/12/29 01:07:03;;;;;;;2.70;1.20;;;;;;;9.07;88.70;99751.44;6123632;28;20499;-79
2022/12/29 01:10:11;;;;;;;1.65;0.90;;;;;;;9.17;88.58;99756.59;6124087;28;20033;-76
2022/12/29 01:13:06;;;;;;;1.98;0.88;;;;;;;9.18;88.91;99753.78;6125425;28;20055;-74
2022/12/29 01:16:01;;;;;;;3.10;1.10;;;;;;;9.33;88.40;99756.63;6124827;28;20024;-75
2022/12/29 01:18:57;;;;;;;2.95;1.05;;;;;;;9.29;88.73;99750.84;6123706;28;20033;-76
2022/12/29 01:21:52;;;;;;;2.10;0.90;;;;;;;9.22;89.06;99733.94;6123209;28;20040;-78
2022/12/29 01:24:49;;;;;;;2.50;1.20;;;;;;;9.20;89.00;99730.66;6122489;28;20154;-77
2022/12/29 01:27:44;;;;;;;1.73;1.00;;;;;;;9.27;89.61;99739.59;6105752;28;20044;-76
2022/12/29 01:30:39;;;;;;;1.70;0.80;;;;;;;9.26;89.45;99735.31;6123715;28;20036;-77
2022/12/29 01:33:34;;;;;;;2.60;1.10;;;;;;;9.25;89.60;99724.88;6123628;28;20033;-78
2022/12/29 01:36:30;;;;;;;2.83;1.40;;;;;;;9.14;90.20;99726.00;6123184;28;20066;-76
2022/12/29 01:39:25;;;;;;;3.30;1.07;;;;;;;9.06;90.68;99718.03;6123925;28;20063;-75
2022/12/29 01:42:24;;;;;;;3.70;1.27;;;;;;;9.15;90.65;99732.13;6120323;28;20325;-77
2022/12/29 01:45:19;;;;;;;2.15;0.85;;;;;;;9.20;91.07;99737.75;6123271;28;20282;-76
2022/12/29 01:48:15;;;;;;;2.13;1.10;;;;;;;9.28;90.85;99732.47;6123047;28;20037;-76
2022/12/29 01:51:10;;;;;;;1.40;0.80;;;;;;;9.22;91.09;99694.28;6123142;28;20033;-77
2022/12/29 01:54:11;;;;;;;1.87;0.90;;;;;;;9.24;91.15;99705.50;6120422;28;20033;-77
2022/12/29 01:57:11;;;;;;;3.20;0.98;;;;;;;9.20;91.69;99714.78;6122788;28;20062;-78
2022/12/29 02:00:12;;;;;;;1.85;0.93;;;;;;;9.13;92.16;99718.25;6121664;28;20633;-78
2022/12/29 02:03:07;;;;;;;3.25;1.08;;;;;;;9.15;92.19;99714.44;6121867;28;20040;-75
2022/12/29 02:06:22;;;;;;;2.67;1.30;;;;;;;9.10;92.72;99703.53;6117984;28;20036;-76
2022/12/29 02:09:18;;;;;;;5.25;1.02;;;;;;;9.07;93.19;99711.78;6121218;28;20036;-76
2022/12/29 02:12:13;;;;;;;2.60;1.23;;;;;;;9.04;93.34;99690.94;6122446;28;20426;-75
2022/12/29 02:15:09;;;;;;;2.58;1.25;;;;;;;8.97;93.43;99703.13;6122434;28;20028;-77
2022/12/29 02:18:35;;;;;;;3.95;0.90;;;;;;;9.05;93.69;99710.28;6122815;28;20060;-76
2022/12/29 02:21:54;;;;;;;2.47;1.25;;;;;;;9.06;93.78;99709.28;6121466;28;20086;-77
2022/12/29 02:25:23;;;;;;;2.75;1.40;;;;;;;9.10;93.79;99692.13;6120552;28;20047;-76
2022/12/29 02:28:49;;;;;;;4.03;1.20;;;;;;;9.12;93.79;99684.84;6113626;28;20475;-78
2022/12/29 02:31:52;;;;;;;2.88;0.70;;;;;;;9.17;93.50;99664.84;6121518;28;20059;-77
2022/12/29 02:34:57;;;;;;;3.92;1.05;;;;;;;9.10;93.88;99668.31;6120631;28;20510;-77
2022/12/29 02:38:03;;;;;;;2.17;1.00;;;;;;;9.07;93.79;99655.41;6121734;28;20503;-76
2022/12/29 02:41:08;;;;;;;3.78;1.20;;;;;;;9.10;93.76;99657.72;6121144;28;20028;-75
2022/12/29 02:44:13;;;;;;;3.80;1.00;;;;;;;9.09;93.15;99658.72;6112956;28;20128;-78
2022/12/29 02:47:22;;;;;;;2.58;0.93;;;;;;;8.94;94.06;99661.19;6129731;28;20081;-79
2022/12/29 02:50:25;;;;;;;2.63;0.95;;;;;;;8.97;94.56;99679.34;6121998;28;20036;-76
2022/12/29 02:54:40;;;;;;;3.13;1.10;;;;;;;8.96;94.44;99670.59;6121209;28;20112;-78
2022/12/29 02:56:36;;;;;;;2.08;1.00;;;;;;;9.00;94.69;99668.44;6121183;28;20051;-76
2022/12/29 02:59:31;;;;;;;2.23;0.97;;;;;;;8.91;94.88;99656.22;6113264;28;20484;-76
2022/12/29 03:02:44;;;;;;;3.90;1.00;;;;;;;8.96;95.99;99669.75;6121255;28;20040;-75
2022/12/29 03:05:55;;;;;;;3.58;1.20;;;;;;;8.98;95.22;99646.63;6120089;28;20037;-76
2022/12/29 03:09:19;;;;;;;3.85;1.20;;;;;;;8.88;95.56;99640.66;6121622;28;20036;-78
2022/12/29 03:16:05;;;;;;;1.80;1.00;;;;;;;9.05;95.21;99638.88;6132084;28;20032;-76
2022/12/29 03:19:06;;;;;;;2.20;1.10;;;;;;;9.10;94.72;99637.41;6115389;28;20086;-79
2022/12/29 03:25:32;;;;;;;4.40;1.30;;;;;;;9.14;93.74;99622.84;6125912;28;20032;-75
2022/12/29 03:28:35;;;;;;;1.73;0.98;;;;;;;9.21;93.22;99620.41;6124927;28;20107;-75
2022/12/29 03:31:31;;;;;;;2.78;1.08;;;;;;;9.38;92.63;99638.75;6124815;28;20073;-74
2022/12/29 03:34:27;;;;;;;1.55;1.00;;;;;;;9.27;92.45;99606.50;6123599;28;20040;-76
2022/12/29 03:37:26;;;;;;;3.25;1.52;;;;;;;9.36;92.28;99594.94;6123402;28;20074;-78
2022/12/29 03:40:22;;;;;;;3.83;1.17;;;;;;;9.40;92.44;99598.91;6125982;28;20044;-77
2022/12/29 03:43:18;;;;;;;2.33;1.30;;;;;;;9.39;92.69;99587.50;6133554;28;20094;-76
2022/12/29 03:46:13;;;;;;;1.63;0.90;;;;;;;9.44;92.60;99598.41;6126441;28;20036;-74
2022/12/29 03:49:09;;;;;;;2.77;1.17;;;;;;;9.42;92.34;99576.56;6125586;28;20044;-76
2022/12/29 03:52:04;;;;;;;2.67;1.40;;;;;;;9.55;93.04;99590.13;6125258;28;20070;-76
2022/12/29 03:54:59;;;;;;;2.42;1.17;;;;;;;9.48;93.02;99573.25;6130697;28;20039;-77
2022/12/29 03:57:55;;;;;;;1.92;0.82;;;;;;;9.28;93.60;99558.72;6126086;28;20449;-77
2022/12/29 04:00:50;;;;;;;3.07;1.10;;;;;;;9.34;93.65;99570.47;6125950;28;20035;-76
2022/12/29 04:03:45;;;;;;;4.00;1.30;;;;;;;9.26;95.13;99568.66;6124442;28;20036;-77
2022/12/29 04:06:41;;;;;;;1.83;1.00;;;;;;;9.27;94.67;99557.06;6125928;28;20390;-78
2022/12/29 04:09:36;;;;;;;9.63;1.20;;;;;;;9.30;94.62;99567.31;6125489;28;20042;-76
2022/12/29 04:12:31;;;;;;;2.30;1.00;;;;;;;9.31;95.64;99574.25;6124328;28;20668;-77
2022/12/29 04:15:27;;;;;;;2.20;0.90;;;;;;;9.41;95.45;99582.03;6125890;28;20411;-77
2022/12/29 04:18:22;;;;;;;3.00;1.10;;;;;;;9.36;95.71;99584.34;6125059;28;20111;-79
2022/12/29 04:21:17;;;;;;;1.80;0.80;;;;;;;9.34;95.64;99595.09;6118588;28;20045;-77
2022/12/29 04:24:13;;;;;;;1.50;0.90;;;;;;;9.27;95.82;99580.88;6124597;28;20086;-75
2022/12/29 04:27:08;;;;;;;1.58;1.05;;;;;;;9.28;96.19;99585.19;6125022;28;20417;-78
2022/12/29 04:30:04;;;;;;;2.43;1.00;;;;;;;9.37;95.64;99578.06;6124840;28;20187;-76
2022/12/29 04:33:00;;;;;;;1.05;0.70;;;;;;;9.51;94.57;99570.25;6112603;28;20052;-77
2022/12/29 04:35:55;;;;;;;2.37;1.00;;;;;;;9.71;94.20;99576.03;6125416;28;20388;-77
2022/12/29 04:38:50;;;;;;;3.35;1.02;;;;;;;9.65;94.16;99574.06;6124676;28;20040;-77
2022/12/29 04:41:46;;;;;;;2.57;0.90;;;;;;;9.73;94.22;99574.03;6124828;28;20122;-76
2022/12/29 04:44:41;;;;;;;1.38;0.73;;;;;;;9.85;93.42;99580.63;6123470;28;20027;-75
2022/12/29 04:47:36;;;;;;;2.30;0.90;;;;;;;9.74;93.05;99556.34;6124186;28;20570;-75
2022/12/29 04:50:32;;;;;;;2.42;1.00;;;;;;;9.94;92.52;99576.16;6125091;28;20029;-75
2022/12/29 04:53:27;;;;;;;1.63;0.80;;;;;;;9.99;91.64;99574.66;6123986;28;20368;-76
2022/12/29 04:56:22;;;;;;;1.57;0.70;;;;;;;9.95;91.57;99577.78;6125234;28;20020;-78
2022/12/29 04:59:18;;;;;;;2.87;1.13;;;;;;;10.03;91.33;99591.00;6123969;28;20063;-78
2022/12/29 05:02:13;;;;;;;2.30;0.70;;;;;;;10.10;90.49;99581.41;6124209;28;20423;-74
2022/12/29 05:05:08;;;;;;;0.90;0.50;;;;;;;10.02;90.03;99563.72;6124401;28;20043;-75
2022/12/29 05:08:04;;;;;;;3.70;0.90;;;;;;;10.05;89.65;99557.25;6125194;28;20035;-78
2022/12/29 05:10:59;;;;;;;3.83;0.80;;;;;;;10.12;89.58;99569.66;6123864;28;20668;-77
2022/12/29 05:13:54;;;;;;;0.87;0.60;;;;;;;10.12;89.19;99555.56;6123080;28;20384;-78
2022/12/29 05:16:50;;;;;;;0.83;0.60;;;;;;;10.20;89.06;99571.44;6118345;28;20372;-76
2022/12/29 05:19:45;;;;;;;1.67;0.77;;;;;;;10.18;88.65;99568.16;6120877;28;20267;-75
2022/12/29 05:22:40;;;;;;;1.53;0.70;;;;;;;10.02;89.12;99565.53;6121700;28;20028;-79
2022/12/29 05:25:36;;;;;;;1.77;0.70;;;;;;;10.12;88.72;99574.09;6123849;28;20051;-77
2022/12/29 05:28:31;;;;;;;1.60;0.65;;;;;;;10.04;89.25;99571.47;6123783;28;20436;-78
2022/12/29 05:31:27;;;;;;;1.27;0.70;;;;;;;9.92;89.16;99556.97;6122761;28;20029;-77
2022/12/29 05:34:22;;;;;;;1.67;0.47;;;;;;;10.08;88.87;99568.31;6122582;28;20116;-78
2022/12/29 05:37:17;;;;;;;0.97;0.60;;;;;;;10.14;88.00;99561.53;6123866;28;20064;-75
2022/12/29 05:40:12;;;;;;;1.17;0.73;;;;;;;10.24;87.77;99569.28;6123936;28;20384;-75
2022/12/29 05:43:08;;;;;;;1.20;0.70;;;;;;;10.26;87.57;99560.16;6122977;28;20058;-76
2022/12/29 05:46:03;;;;;;;1.43;0.63;;;;;;;10.21;87.37;99551.09;6122664;28;20286;-76
2022/12/29 05:48:58;;;;;;;2.42;0.70;;;;;;;10.33;86.79;99550.53;6123634;28;20068;-75
2022/12/29 05:51:54;;;;;;;1.37;0.80;;;;;;;10.37;86.38;99535.13;6114113;28;20068;-76
2022/12/29 05:54:49;;;;;;;1.30;0.57;;;;;;;10.44;86.20;99547.50;6123500;28;20029;-77
2022/12/29 05:57:44;;;;;;;0.47;0.47;;;;;;;10.43;86.17;99545.03;6123902;28;20099;-76
2022/12/29 06:00:40;;;;;;;1.13;0.60;;;;;;;10.45;85.84;99543.84;6123158;28;20267;-76
2022/12/29 06:03:35;;;;;;;1.07;0.30;;;;;;;10.43;87.17;99545.03;6109086;28;20039;-76
2022/12/29 06:06:30;;;;;;;1.30;0.60;;;;;;;10.39;88.35;99571.03;6121946;28;20373;-75
2022/12/29 06:09:26;;;;;;;1.90;0.80;;;;;;;10.30;88.33;99545.56;6123002;28;20044;-75
2022/12/29 06:12:21;;;;;;;1.10;0.67;;;;;;;10.31;88.84;99557.00;6121912;28;20036;-75
2022/12/29 06:15:17;;;;;;;1.10;0.60;;;;;;;10.26;89.26;99554.88;6121661;28;20398;-74
2022/12/29 06:18:12;;;;;;;2.45;0.50;;;;;;;10.13;90.53;99546.66;6122687;28;20290;-76
2022/12/29 06:21:07;;;;;;;0.93;0.53;;;;;;;10.16;91.13;99551.63;6122558;28;20044;-77
2022/12/29 06:24:04;;;;;;;0.63;0.30;;;;;;;10.16;91.24;99548.97;6121887;28;20048;-75
2022/12/29 06:26:59;;;;;;;1.40;0.50;;;;;;;10.14;91.10;99524.44;6122353;28;20459;-76
2022/12/29 06:29:54;;;;;;;1.33;0.60;;;;;;;10.25;91.11;99533.84;6121480;28;20032;-75
2022/12/29 06:32:51;;;;;;;2.70;0.63;;;;;;;10.16;91.22;99517.19;6122124;28;20025;-76
2022/12/29 06:35:46;;;;;;;1.60;0.52;;;;;;;10.08;91.63;99525.94;6122252;28;20123;-76
2022/12/29 06:38:41;;;;;;;0.40;0.30;;;;;;;10.06;92.11;99527.09;6122495;28;20437;-76
2022/12/29 06:41:36;;;;;;;0.80;0.40;;;;;;;10.04;92.71;99531.75;6121959;28;20043;-74
2022/12/29 06:44:32;;;;;;;2.53;0.50;;;;;;;9.95;92.95;99519.53;6121147;28;20032;-77
2022/12/29 06:47:27;;;;;;;0.87;0.53;;;;;;;10.17;92.18;99529.41;6122893;28;20360;-77
2022/12/29 06:50:22;;;;;;;1.40;0.60;;;;;;;10.12;92.52;99513.19;6122957;28;20040;-75
2022/12/29 06:53:17;;;;;;;0.57;0.30;;;;;;;10.20;92.20;99531.72;6121265;28;20032;-75
2022/12/29 06:56:13;;;;;;;0.70;0.53;;;;;;;10.19;91.95;99516.00;6108133;28;20044;-76
2022/12/29 06:59:09;;;;;;;0.68;0.30;;;;;;;10.29;91.79;99517.44;6122446;28;20071;-76
2022/12/29 07:02:05;;;;;;;0.32;0.30;;;;;;;10.26;91.85;99517.78;6129765;28;20037;-77
2022/12/29 07:05:00;;;;;;;1.25;0.50;;;;;;;10.37;91.01;99530.66;6122455;28;20545;-74
2022/12/29 07:07:55;;;;;;;0.60;0.40;;;;;;;10.38;90.75;99521.69;6127237;28;20040;-76
2022/12/29 07:10:51;;;;;;;4.20;1.03;;;;;;;10.38;90.88;99519.03;6123030;28;20033;-75
2022/12/29 07:13:46;;;;;;;2.13;0.60;;;;;;;10.35;91.36;99519.41;6122332;28;20380;-77
2022/12/29 07:16:41;;;;;;;1.40;0.53;;;;;;;10.42;91.11;99532.75;6122037;28;20040;-77
2022/12/29 07:19:37;;;;;;;0.95;0.30;;;;;;;10.37;90.97;99520.03;6122508;28;20048;-77
2022/12/29 07:22:32;;;;;;;0.53;0.20;;;;;;;10.47;90.60;99530.41;6121767;28;20047;-75
2022/12/29 07:25:29;;;;;;;2.07;0.60;;;;;;;10.46;90.18;99529.59;6122668;28;20028;-77
2022/12/29 07:28:24;;;;;;;0.47;0.30;;;;;;;10.62;89.80;99528.69;6121300;28;20298;-75
2022/12/29 07:31:21;;;;;;;1.17;0.40;;;;;;;10.58;89.34;99517.59;6120125;28;20040;-75
2022/12/29 07:34:17;;;;;;;0.30;0.25;;;;;;;10.58;88.37;99504.34;6118387;28;20488;-79
2022/12/29 07:37:13;;;;;;;1.40;0.60;;;;;;;10.65;88.19;99525.69;6122764;28;20037;-77
2022/12/29 07:40:09;;;;;;;0.77;0.45;;;;;;;10.79;87.53;99527.56;6122314;28;20052;-78
2022/12/29 07:43:04;;;;;;;0.95;0.55;;;;;;;10.86;86.66;99536.47;6111806;28;20729;-75
2022/12/29 07:46:00;;;;;;;1.27;0.60;;;;;;;10.78;86.45;99528.56;6122534;28;20051;-74
2022/12/29 07:48:55;;;;;;;0.40;0.27;;;;;;;10.87;85.73;99545.25;6124135;28;20044;-74
2022/12/29 07:51:50;;;;;;;0.45;0.30;;;;;;;10.96;85.73;99557.44;6122901;28;20715;-78
2022/12/29 07:54:46;;;;;;;1.40;0.23;;;;;;;10.94;84.45;99559.44;6123247;28;20059;-77
2022/12/29 07:57:41;;;;;;;0.57;0.20;;;;;;;10.99;83.89;99565.03;6123307;28;20273;-74
2022/12/29 08:00:37;;;;;;;0.93;0.40;;;;;;;11.08;83.78;99590.53;6123144;28;20282;-76
2022/12/29 08:03:33;;;;;;;0.70;0.30;;;;;;;11.09;83.47;99606.25;6123200;28;20031;-79
2022/12/29 08:06:29;;;;;;;0.70;0.40;;;;;;;11.20;83.47;99620.94;6129356;28;20029;-75
2022/12/29 08:09:25;;;;;;;0.52;0.30;;;;;;;11.09;83.78;99616.88;6130491;28;20137;-76
2022/12/29 08:12:20;;;;;;;0.90;0.50;;;;;;;11.06;83.81;99605.81;6129659;28;20111;-75
2022/12/29 08:15:16;;;;;;;1.60;0.60;;;;;;;11.12;84.11;99611.22;6130051;28;20043;-76
2022/12/29 08:18:11;;;;;;;1.48;0.47;;;;;;;11.03;84.29;99603.50;6127874;28;20036;-78
2022/12/29 08:21:06;;;;;;;1.03;0.67;;;;;;;11.08;84.09;99609.09;6131019;28;20032;-78
2022/12/29 08:24:05;;;;;;;1.88;0.73;;;;;;;11.12;83.37;99626.28;6128081;28;20422;-78
2022/12/29 08:27:01;;;;;;;0.38;0.38;;;;;;;11.03;83.56;99637.97;6130253;28;20034;-77
2022/12/29 08:29:57;;;;;;;2.50;0.60;;;;;;;11.00;83.08;99638.34;6130147;28;20033;-75
2022/12/29 08:32:52;;;;;;;0.87;0.20;;;;;;;10.86;82.60;99608.06;6127613;28;20048;-75
2022/12/29 08:35:47;;;;;;;0.53;0.37;;;;;;;10.90;82.82;99641.19;6128180;28;20399;-76
2022/12/29 08:38:43;;;;;;;1.38;0.45;;;;;;;10.86;83.26;99633.75;6129525;28;20274;-77
2022/12/29 08:41:38;;;;;;;2.23;1.23;;;;;;;10.75;85.23;99627.88;6130407;28;20070;-78
2022/12/29 08:44:33;;;;;;;0.70;0.40;;;;;;;10.57;86.80;99634.41;6128719;28;20488;-79
2022/12/29 08:47:29;;;;;;;0.70;0.47;;;;;;;10.58;89.18;99650.13;6126382;28;20037;-77
2022/12/29 08:50:24;;;;;;;0.87;0.50;;;;;;;10.06;95.39;99636.53;6123948;28;20040;-73
2022/12/29 08:53:19;;;;;;;2.67;0.77;;;;;;;9.57;100.00;99630.47;6123703;28;20112;-74
2022/12/29 08:56:15;;;;;;;3.10;0.67;;;;;;;9.36;100.00;99650.47;6122562;28;20044;-74
2022/12/29 08:59:11;;;;;;;1.30;0.77;;;;;;;9.16;100.00;99649.97;6130184;28;20028;-74
2022/12/29 09:02:10;;;;;;;1.83;1.00;;;;;;;9.00;100.00;99652.56;6128556;28;20093;-73
2022/12/29 09:05:06;;;;;;;3.20;0.90;;;;;;;8.84;100.00;99634.88;6130330;28;20103;-73
2022/12/29 09:08:01;;;;;;;1.00;0.65;;;;;;;8.67;100.00;99642.91;6115041;28;20482;-74
2022/12/29 09:11:08;;;;;;;5.57;1.40;;;;;;;8.65;100.00;99663.38;6123512;28;20033;-73
2022/12/29 09:14:04;;;;;;;1.30;0.50;;;;;;;8.53;100.00;99665.50;6130666;28;20073;-74
2022/12/29 09:20:16;;;;;;;1.45;0.70;;;;;;;8.45;100.00;99681.31;6126216;28;20034;-75
2022/12/29 09:23:11;;;;;;;2.22;0.80;;;;;;;8.36;100.00;99659.31;6130542;28;20048;-75
2022/12/29 09:26:07;;;;;;;1.90;0.70;;;;;;;8.42;100.00;99670.22;6127494;28;20086;-76
2022/12/29 09:29:02;;;;;;;1.50;0.55;;;;;;;8.37;100.00;99654.81;6122769;28;20100;-76
2022/12/29 09:31:58;;;;;;;1.20;0.73;;;;;;;8.35;100.00;99662.09;6121493;28;20062;-77
2022/12/29 09:34:53;;;;;;;1.00;0.70;;;;;;;8.40;100.00;99666.91;6123414;28;20395;-77
2022/12/29 09:37:48;;;;;;;1.53;0.60;;;;;;;8.36;100.00;99672.50;6120747;28;20034;-78
2022/12/29 09:40:57;;;;;;;1.87;0.63;;;;;;;8.43;100.00;99685.91;6124783;28;20103;-76
2022/12/29 09:44:10;;;;;;;0.68;0.35;;;;;;;8.51;100.00;99670.09;6121053;28;20467;-79
2022/12/29 09:47:09;;;;;;;1.67;0.70;;;;;;;8.49;100.00;99672.06;6119960;28;20514;-78
2022/12/29 09:50:12;;;;;;;1.27;0.68;;;;;;;8.38;100.00;99661.78;6122077;28;20066;-78
2022/12/29 09:53:17;;;;;;;0.77;0.63;;;;;;;8.51;100.00;99695.66;6121077;28;20064;-80
2022/12/29 09:56:19;;;;;;;1.65;0.60;;;;;;;8.46;100.00;99684.75;6123385;28;20024;-79
2022/12/29 09:59:20;;;;;;;1.15;0.60;;;;;;;8.52;100.00;99676.19;6122285;28;20422;-79
2022/12/29 10:02:23;;;;;;;2.97;0.80;;;;;;;8.37;100.00;99663.59;6120164;28;20365;-77
2022/12/29 10:05:48;;;;;;;1.85;0.73;;;;;;;8.45;100.00;99670.75;6118916;28;20460;-76
2022/12/29 10:08:59;;;;;;;1.23;0.70;;;;;;;8.56;100.00;99667.00;6121850;28;20066;-81
2022/12/29 10:12:24;;;;;;;1.88;0.90;;;;;;;8.71;100.00;99682.06;6120012;28;20032;-79
2022/12/29 10:15:50;;;;;;;2.00;0.68;;;;;;;8.86;100.00;99682.28;6126143;28;20024;-77
2022/12/29 10:19:34;;;;;;;0.82;0.45;;;;;;;8.94;100.00;99650.59;6111922;28;20094;-77
2022/12/29 10:22:42;;;;;;;0.50;0.40;;;;;;;9.44;100.00;99640.72;6123703;28;20021;-79
2022/12/29 10:25:39;;;;;;;1.50;0.63;;;;;;;9.95;100.00;99641.34;6122786;28;20542;-80
2022/12/29 10:28:39;;;;;;;0.98;0.45;;;;;;;10.53;100.00;99649.00;6117497;28;20056;-79
2022/12/29 10:31:38;;;;;;;1.65;0.85;;;;;;;10.81;100.00;99666.13;6121388;28;20064;-77
2022/12/29 10:34:36;;;;;;;1.55;0.50;;;;;;;10.73;100.00;99652.91;6120601;28;20032;-78
2022/12/29 10:37:58;;;;;;;1.83;0.80;;;;;;;10.49;100.00;99667.06;6119628;28;20441;-77
2022/12/29 10:40:57;;;;;;;2.08;0.60;;;;;;;10.22;100.00;99680.72;6119855;28;20060;-79
2022/12/29 10:43:54;;;;;;;0.88;0.45;;;;;;;9.76;100.00;99657.59;6120855;28;20111;-77
2022/12/29 10:47:00;;;;;;;1.40;0.57;;;;;;;9.63;100.00;99665.22;6119138;28;20406;-78
2022/12/29 10:49:58;;;;;;;1.30;0.70;;;;;;;9.65;100.00;99697.66;6120766;28;20174;-77
2022/12/29 10:52:54;;;;;;;1.45;0.63;;;;;;;9.44;100.00;99690.19;6124757;28;20060;-76
2022/12/29 10:55:50;;;;;;;4.82;1.00;;;;;;;9.41;100.00;99670.16;6121496;28;20039;-75
2022/12/29 10:58:46;;;;;;;1.20;0.70;;;;;;;9.38;100.00;99680.25;6120603;28;20028;-77
2022/12/29 11:02:06;;;;;;;1.73;0.80;;;;;;;9.51;100.00;99680.59;6120918;28;20391;-77
2022/12/29 11:05:03;;;;;;;;;;;;;;;9.81;100.00;99684.41;6122845;28;20388;-77
2022/12/29 11:08:02;;;;;;;1.10;0.60;;;;;;;10.09;100.00;99672.44;6150567;28;19916;-76
2022/12/29 11:11:02;;;;;;;3.05;0.90;;;;;;;10.39;100.00;99671.75;6121928;28;20477;-77
2022/12/29 11:14:11;;;;;;;4.18;0.80;;;;;;;10.61;100.00;99671.00;6123205;28;20028;-76
2022/12/29 11:17:14;;;;;;;2.17;0.77;;;;;;;10.55;99.38;99677.00;6124164;28;20094;-79
2022/12/29 11:20:28;;;;;;;1.23;0.70;;;;;;;10.49;98.21;99663.59;6114805;28;20074;-77
2022/12/29 11:23:28;;;;;;;1.40;0.80;;;;;;;10.40;98.87;99676.06;6125908;28;20119;-77
2022/12/29 11:26:24;;;;;;;2.13;0.90;;;;;;;10.32;98.52;99664.66;6123494;28;20384;-77
2022/12/29 11:29:42;;;;;;;1.48;0.50;;;;;;;10.35;98.50;99666.97;6126569;28;20024;-77
2022/12/29 11:32:51;;;;;;;2.42;0.82;;;;;;;10.21;97.25;99663.19;6124230;28;20044;-79
2022/12/29 11:35:47;;;;;;;1.80;0.90;;;;;;;10.10;96.88;99644.97;6126597;28;20040;-77
2022/12/29 11:38:46;;;;;;;1.50;0.60;;;;;;;10.06;93.78;99648.94;6129892;28;20036;-78
2022/12/29 11:41:51;;;;;;;4.00;0.70;;;;;;;10.34;91.46;99668.78;6124754;28;20074;-79
2022/12/29 11:44:47;;;;;;;3.35;0.60;;;;;;;10.37;88.65;99668.44;6131822;28;20041;-76
2022/12/29 11:47:45;;;;;;;1.23;0.50;;;;;;;10.43;87.47;99677.53;6130918;28;20119;-77
2022/12/29 11:50:41;;;;;;;2.67;0.88;;;;;;;10.50;86.75;99679.31;6130279;28;20036;-78
2022/12/29 11:53:47;;;;;;;1.48;0.95;;;;;;;10.57;86.35;99682.13;6129802;28;20037;-78
2022/12/29 11:56:43;;;;;;;1.75;0.57;;;;;;;10.46;86.33;99678.00;6129690;28;20052;-78
2022/12/29 11:59:42;;;;;;;0.82;0.47;;;;;;;10.29;84.22;99662.34;6129012;28;20581;-78
2022/12/29 12:03:02;;;;;;;1.45;0.40;;;;;;;10.31;82.24;99698.25;6128307;28;20479;-76
2022/12/29 12:06:02;;;;;;;3.25;0.88;;;;;;;10.33;80.49;99709.50;6122653;28;20055;-78
2022/12/29 12:08:59;;;;;;;;;;;;;;;10.23;80.78;99713.34;6129399;28;20029;-78
2022/12/29 12:11:55;;;;;;;3.55;0.73;;;;;;;10.22;80.03;99715.16;6127845;28;19912;-76
2022/12/29 12:14:59;;;;;;;4.20;0.90;;;;;;;10.18;80.04;99715.69;6118974;28;20036;-76
2022/12/29 12:18:27;;;;;;;4.25;0.70;;;;;;;10.27;79.95;99720.81;6123625;28;20035;-78
2022/12/29 12:21:36;;;;;;;1.42;0.43;;;;;;;10.21;79.51;99694.97;6089132;28;20047;-78
2022/12/29 12:24:39;;;;;;;2.42;0.60;;;;;;;10.27;80.78;99702.25;6122842;28;20039;-77
2022/12/29 12:27:47;;;;;;;3.22;0.70;;;;;;;10.40;79.74;99702.56;6127669;28;20020;-78
2022/12/29 12:30:49;;;;;;;2.83;0.80;;;;;;;10.40;77.99;99699.91;6123471;28;20044;-76
2022/12/29 12:33:48;;;;;;;1.65;0.68;;;;;;;10.28;77.89;99693.28;6127423;28;20124;-76
2022/12/29 12:37:02;;;;;;;1.85;0.68;;;;;;;10.41;77.13;99696.25;6104771;28;20040;-78
2022/12/29 12:40:31;;;;;;;2.17;0.80;;;;;;;10.57;77.08;99717.41;6126956;28;20044;-77
2022/12/29 12:43:41;;;;;;;2.42;0.88;;;;;;;10.48;77.88;99701.69;6105270;28;20033;-80
2022/12/29 12:46:39;;;;;;;2.17;0.80;;;;;;;10.57;77.88;99706.00;6123223;28;20506;-77
2022/12/29 12:49:58;;;;;;;3.13;0.50;;;;;;;10.53;78.20;99720.56;6129581;28;20036;-78
2022/12/29 12:53:03;;;;;;;3.50;0.68;;;;;;;10.57;77.25;99721.91;6116080;28;20040;-77
2022/12/29 12:56:09;;;;;;;1.75;0.80;;;;;;;10.55;78.11;99727.34;6125004;28;20041;-77
2022/12/29 12:59:11;;;;;;;2.25;0.80;;;;;;;10.50;79.00;99713.78;6125533;28;20032;-76
2022/12/29 13:02:24;;;;;;;3.08;0.60;;;;;;;10.53;78.16;99713.44;6123478;28;20036;-76
2022/12/29 13:05:38;;;;;;;1.58;0.82;;;;;;;10.49;79.13;99725.38;6125700;28;20081;-78
2022/12/29 13:09:22;;;;;;;2.30;0.80;;;;;;;10.48;79.16;99726.38;6126670;28;20039;-77
2022/12/29 13:12:30;;;;;;;2.63;0.65;;;;;;;10.43;77.83;99712.81;6111548;28;20044;-77
2022/12/29 13:15:35;;;;;;;1.88;0.68;;;;;;;10.44;79.72;99738.31;6126536;28;20063;-78
2022/12/29 13:18:36;;;;;;;1.98;0.68;;;;;;;10.46;79.39;99736.31;6121322;28;20626;-76
2022/12/29 13:21:55;;;;;;;4.53;0.60;;;;;;;10.42;79.20;99720.94;6124545;28;20495;-76
2022/12/29 13:24:54;;;;;;;5.30;1.10;;;;;;;10.40;79.25;99712.31;6126098;28;20400;-77
2022/12/29 13:28:18;;;;;;;1.90;0.57;;;;;;;10.51;78.92;99739.31;6126736;28;20094;-77
2022/12/29 13:31:32;;;;;;;3.30;0.68;;;;;;;10.59;77.87;99738.44;6121779;28;20045;-76
2022/12/29 13:34:43;;;;;;;2.50;0.80;;;;;;;10.47;77.90;99727.38;6121423;28;20043;-77
2022/12/29 13:37:51;;;;;;;3.10;0.75;;;;;;;10.54;77.45;99731.03;6124476;28;20523;-78
2022/12/29 13:40:49;;;;;;;2.05;0.60;;;;;;;10.64;77.16;99744.06;6127041;28;20402;-76
2022/12/29 13:43:46;;;;;;;3.45;0.60;;;;;;;10.70;76.78;99738.09;6124447;28;20042;-75
2022/12/29 13:46:44;;;;;;;4.53;0.65;;;;;;;10.58;75.93;99721.72;6124826;28;20039;-76
2022/12/29 13:49:39;;;;;;;3.97;0.95;;;;;;;10.64;75.99;99734.28;6113743;28;20029;-77
2022/12/29 13:53:05;;;;;;;1.83;0.63;;;;;;;10.68;76.09;99756.81;6123775;28;20031;-76
2022/12/29 13:56:07;;;;;;;2.95;0.68;;;;;;;10.54;76.41;99754.88;6123991;28;20044;-75
2022/12/29 13:59:23;;;;;;;4.43;1.20;;;;;;;10.44;76.58;99751.56;6123716;28;20029;-77
2022/12/29 14:02:42;;;;;;;3.90;0.93;;;;;;;10.63;76.16;99775.06;6124993;28;20029;-76
2022/12/29 14:05:37;;;;;;;5.00;0.80;;;;;;;10.52;76.02;99766.63;6123361;28;20037;-78
2022/12/29 14:08:35;;;;;;;5.00;0.87;;;;;;;10.47;75.61;99777.72;6126209;28;20483;-77
2022/12/29 14:11:37;;;;;;;3.40;1.00;;;;;;;10.60;75.23;99786.00;6110391;28;20017;-78
2022/12/29 14:14:32;;;;;;;2.95;0.82;;;;;;;10.47;75.36;99775.09;6123645;28;20028;-77
2022/12/29 14:17:27;;;;;;;6.00;1.70;;;;;;;10.58;75.42;99795.94;6125683;28;20047;-76
2022/12/29 14:20:23;;;;;;;4.53;1.17;;;;;;;10.53;75.35;99792.13;6124776;28;20055;-78
2022/12/29 14:23:33;;;;;;;3.88;1.17;;;;;;;10.48;75.74;99813.03;6121627;28;20274;-75
2022/12/29 14:26:29;;;;;;;4.72;1.33;;;;;;;10.45;76.34;99819.50;6122804;28;20028;-76
2022/12/29 14:29:24;;;;;;;6.40;1.27;;;;;;;10.39;75.92;99814.84;6122316;28;20390;-74
2022/12/29 14:32:25;;;;;;;2.20;1.10;;;;;;;10.35;76.29;99810.91;6127295;28;20044;-76
2022/12/29 14:35:40;;;;;;;2.75;1.13;;;;;;;10.28;77.08;99828.44;6128206;28;20025;-74
2022/12/29 14:38:44;;;;;;;4.75;1.00;;;;;;;10.25;76.82;99834.06;6125841;28;20037;-76
2022/12/29 14:41:40;;;;;;;7.38;1.83;;;;;;;10.30;76.05;99825.63;6123156;28;20032;-78
2022/12/29 14:44:49;;;;;;;4.15;1.23;;;;;;;10.31;75.90;99821.97;6124885;28;20036;-77
2022/12/29 14:47:46;;;;;;;4.82;0.93;;;;;;;10.27;75.72;99836.56;6123978;28;20036;-78
2022/12/29 14:50:42;;;;;;;5.10;1.30;;;;;;;10.32;74.87;99831.59;6123554;28;20036;-78